sensor_id;sensor_type;location;lat;lon;timestamp;P1;durP1;ratioP1;P2;durP2;ratioP2
22332;SDS011;11334;36.986;-121.936;2023-05-03T00:01:11;7.03;;;1.38;;
22332;SDS011;11334;36.986;-121.936;2023-05-03T00:03:38;6.63;;;1.25;;
22332;SDS011;11334;36.986;-121.936;2023-05-03T00:06:10;4.22;;;1.20;;
22332;SDS011;11334;36.986;-121.936;2023-05-03T00:08:40;5.15;;;1.40;;
22332;SDS011;11334;36.986;-121.936;2023-05-03T00:11:08;4.60;;;1.13;;
22332;SDS011;11334;36.986;-121.936;2023-05-03T00:13:35;3.83;;;1.20;;
22332;SDS011;11334;36.986;-121.936;2023-05-03T00:16:01;7.35;;;2.03;;
22332;SDS011;11334;36.986;-121.936;2023-05-03T00:18:28;5.38;;;1.55;;
22332;SDS011;11334;36.986;-121.936;2023-05-03T00:20:55;8.55;;;1.45;;
22332;SDS011;11334;36.986;-121.936;2023-05-03T00:23:21;5.05;;;1.42;;
22332;SDS011;11334;36.986;-121.936;2023-05-03T00:25:51;8.43;;;1.70;;
22332;SDS011;11334;36.986;-121.936;2023-05-03T00:28:21;3.60;;;1.02;;
22332;SDS011;11334;36.986;-121.936;2023-05-03T00:30:48;6.63;;;1.65;;
22332;SDS011;11334;36.986;-121.936;2023-05-03T00:33:15;3.20;;;1.08;;
22332;SDS011;11334;36.986;-121.936;2023-05-03T00:35:42;10.35;;;1.45;;
22332;SDS011;11334;36.986;-121.936;2023-05-03T00:38:08;9.00;;;1.38;;
22332;SDS011;11334;36.986;-121.936;2023-05-03T00:40:35;4.15;;;1.52;;
22332;SDS011;11334;36.986;-121.936;2023-05-03T00:43:01;7.85;;;1.60;;
22332;SDS011;11334;36.986;-121.936;2023-05-03T00:45:31;10.25;;;1.92;;
22332;SDS011;11334;36.986;-121.936;2023-05-03T00:47:59;6.03;;;1.77;;
22332;SDS011;11334;36.986;-121.936;2023-05-03T00:50:26;7.35;;;1.45;;
22332;SDS011;11334;36.986;-121.936;2023-05-03T00:52:52;7.88;;;1.88;;
22332;SDS011;11334;36.986;-121.936;2023-05-03T00:55:20;7.13;;;1.65;;
22332;SDS011;11334;36.986;-121.936;2023-05-03T00:57:47;11.13;;;1.70;;
22332;SDS011;11334;36.986;-121.936;2023-05-03T01:00:13;6.72;;;1.75;;
22332;SDS011;11334;36.986;-121.936;2023-05-03T01:02:40;7.95;;;2.13;;
22332;SDS011;11334;36.986;-121.936;2023-05-03T01:05:07;3.08;;;1.25;;
22332;SDS011;11334;36.986;-121.936;2023-05-03T01:13:07;5.07;;;1.48;;
22332;SDS011;11334;36.986;-121.936;2023-05-03T01:15:43;10.25;;;1.60;;
22332;SDS011;11334;36.986;-121.936;2023-05-03T01:18:18;7.03;;;1.63;;
22332;SDS011;11334;36.986;-121.936;2023-05-03T01:20:48;6.82;;;1.75;;
22332;SDS011;11334;36.986;-121.936;2023-05-03T01:23:21;6.85;;;1.90;;
22332;SDS011;11334;36.986;-121.936;2023-05-03T01:25:52;7.32;;;1.48;;
22332;SDS011;11334;36.986;-121.936;2023-05-03T01:28:18;8.95;;;1.73;;
22332;SDS011;11334;36.986;-121.936;2023-05-03T01:30:44;4.85;;;1.60;;
22332;SDS011;11334;36.986;-121.936;2023-05-03T01:33:12;8.20;;;1.50;;
22332;SDS011;11334;36.986;-121.936;2023-05-03T01:36:29;9.13;;;1.48;;
22332;SDS011;11334;36.986;-121.936;2023-05-03T01:38:41;7.72;;;1.67;;
22332;SDS011;11334;36.986;-121.936;2023-05-03T01:41:09;9.82;;;1.90;;
22332;SDS011;11334;36.986;-121.936;2023-05-03T01:43:37;5.65;;;1.25;;
22332;SDS011;11334;36.986;-121.936;2023-05-03T01:46:04;4.63;;;1.42;;
22332;SDS011;11334;36.986;-121.936;2023-05-03T01:48:31;4.45;;;1.20;;
22332;SDS011;11334;36.986;-121.936;2023-05-03T01:50:57;6.00;;;1.83;;
22332;SDS011;11334;36.986;-121.936;2023-05-03T01:53:23;9.48;;;1.50;;
22332;SDS011;11334;36.986;-121.936;2023-05-03T01:55:49;8.55;;;1.85;;
22332;SDS011;11334;36.986;-121.936;2023-05-03T01:58:16;4.90;;;1.67;;
22332;SDS011;11334;36.986;-121.936;2023-05-03T02:00:43;8.55;;;1.33;;
22332;SDS011;11334;36.986;-121.936;2023-05-03T02:03:10;4.97;;;1.52;;
22332;SDS011;11334;36.986;-121.936;2023-05-03T02:05:37;2.80;;;1.25;;
22332;SDS011;11334;36.986;-121.936;2023-05-03T02:08:03;7.50;;;2.08;;
22332;SDS011;11334;36.986;-121.936;2023-05-03T02:10:29;5.30;;;1.80;;
22332;SDS011;11334;36.986;-121.936;2023-05-03T02:12:55;6.93;;;1.30;;
22332;SDS011;11334;36.986;-121.936;2023-05-03T02:15:22;7.82;;;1.52;;
22332;SDS011;11334;36.986;-121.936;2023-05-03T02:17:48;5.03;;;1.40;;
22332;SDS011;11334;36.986;-121.936;2023-05-03T02:20:15;5.85;;;1.42;;
22332;SDS011;11334;36.986;-121.936;2023-05-03T02:22:42;5.75;;;1.45;;
22332;SDS011;11334;36.986;-121.936;2023-05-03T02:25:08;5.60;;;1.63;;
22332;SDS011;11334;36.986;-121.936;2023-05-03T02:27:34;5.88;;;2.47;;
22332;SDS011;11334;36.986;-121.936;2023-05-03T02:30:01;4.68;;;2.50;;
22332;SDS011;11334;36.986;-121.936;2023-05-03T02:32:27;6.43;;;1.90;;
22332;SDS011;11334;36.986;-121.936;2023-05-03T02:34:53;5.15;;;1.25;;
22332;SDS011;11334;36.986;-121.936;2023-05-03T02:37:20;6.80;;;1.40;;
22332;SDS011;11334;36.986;-121.936;2023-05-03T02:39:46;5.38;;;1.60;;
22332;SDS011;11334;36.986;-121.936;2023-05-03T02:42:12;7.32;;;1.70;;
22332;SDS011;11334;36.986;-121.936;2023-05-03T02:44:38;5.45;;;1.38;;
22332;SDS011;11334;36.986;-121.936;2023-05-03T02:47:05;4.90;;;1.70;;
22332;SDS011;11334;36.986;-121.936;2023-05-03T02:49:31;6.90;;;1.65;;
22332;SDS011;11334;36.986;-121.936;2023-05-03T02:51:57;5.35;;;1.27;;
22332;SDS011;11334;36.986;-121.936;2023-05-03T02:54:24;4.43;;;1.17;;
22332;SDS011;11334;36.986;-121.936;2023-05-03T02:56:50;4.55;;;1.20;;
22332;SDS011;11334;36.986;-121.936;2023-05-03T02:59:16;3.22;;;0.95;;
22332;SDS011;11334;36.986;-121.936;2023-05-03T03:01:44;4.78;;;1.25;;
22332;SDS011;11334;36.986;-121.936;2023-05-03T03:04:11;5.50;;;1.52;;
22332;SDS011;11334;36.986;-121.936;2023-05-03T03:06:37;2.78;;;0.95;;
22332;SDS011;11334;36.986;-121.936;2023-05-03T03:09:03;2.83;;;0.95;;
22332;SDS011;11334;36.986;-121.936;2023-05-03T03:11:30;9.32;;;1.88;;
22332;SDS011;11334;36.986;-121.936;2023-05-03T03:13:56;4.70;;;1.52;;
22332;SDS011;11334;36.986;-121.936;2023-05-03T03:16:22;5.95;;;1.70;;
22332;SDS011;11334;36.986;-121.936;2023-05-03T03:18:48;5.53;;;1.60;;
22332;SDS011;11334;36.986;-121.936;2023-05-03T03:21:15;7.72;;;1.67;;
22332;SDS011;11334;36.986;-121.936;2023-05-03T03:23:41;5.95;;;1.48;;
22332;SDS011;11334;36.986;-121.936;2023-05-03T03:26:07;4.97;;;1.75;;
22332;SDS011;11334;36.986;-121.936;2023-05-03T03:28:33;6.38;;;1.70;;
22332;SDS011;11334;36.986;-121.936;2023-05-03T03:30:59;8.70;;;1.55;;
22332;SDS011;11334;36.986;-121.936;2023-05-03T03:33:26;6.57;;;1.80;;
22332;SDS011;11334;36.986;-121.936;2023-05-03T03:35:52;13.48;;;2.22;;
22332;SDS011;11334;36.986;-121.936;2023-05-03T03:38:18;8.45;;;1.65;;
22332;SDS011;11334;36.986;-121.936;2023-05-03T03:40:44;11.30;;;1.85;;
22332;SDS011;11334;36.986;-121.936;2023-05-03T03:43:10;11.55;;;1.98;;
22332;SDS011;11334;36.986;-121.936;2023-05-03T03:45:37;5.60;;;1.88;;
22332;SDS011;11334;36.986;-121.936;2023-05-03T03:48:03;5.72;;;1.90;;
22332;SDS011;11334;36.986;-121.936;2023-05-03T03:50:29;7.15;;;1.90;;
22332;SDS011;11334;36.986;-121.936;2023-05-03T03:52:56;6.38;;;1.20;;
22332;SDS011;11334;36.986;-121.936;2023-05-03T03:55:22;9.70;;;2.42;;
22332;SDS011;11334;36.986;-121.936;2023-05-03T03:57:48;7.25;;;2.30;;
22332;SDS011;11334;36.986;-121.936;2023-05-03T04:00:14;4.45;;;1.58;;
22332;SDS011;11334;36.986;-121.936;2023-05-03T04:02:41;13.40;;;2.50;;
22332;SDS011;11334;36.986;-121.936;2023-05-03T04:05:07;6.00;;;1.30;;
22332;SDS011;11334;36.986;-121.936;2023-05-03T04:07:33;3.20;;;1.60;;
22332;SDS011;11334;36.986;-121.936;2023-05-03T04:10:00;5.88;;;1.55;;
22332;SDS011;11334;36.986;-121.936;2023-05-03T04:12:26;4.35;;;1.13;;
22332;SDS011;11334;36.986;-121.936;2023-05-03T04:14:53;3.95;;;1.23;;
22332;SDS011;11334;36.986;-121.936;2023-05-03T04:17:20;6.13;;;1.40;;
22332;SDS011;11334;36.986;-121.936;2023-05-03T04:19:47;8.00;;;1.55;;
22332;SDS011;11334;36.986;-121.936;2023-05-03T04:22:13;4.50;;;1.60;;
22332;SDS011;11334;36.986;-121.936;2023-05-03T04:24:39;2.88;;;1.15;;
22332;SDS011;11334;36.986;-121.936;2023-05-03T04:27:06;9.45;;;2.25;;
22332;SDS011;11334;36.986;-121.936;2023-05-03T04:29:33;5.82;;;2.08;;
22332;SDS011;11334;36.986;-121.936;2023-05-03T04:31:59;6.40;;;1.17;;
22332;SDS011;11334;36.986;-121.936;2023-05-03T04:34:26;4.07;;;1.40;;
22332;SDS011;11334;36.986;-121.936;2023-05-03T04:36:54;5.57;;;1.95;;
22332;SDS011;11334;36.986;-121.936;2023-05-03T04:39:21;7.68;;;1.45;;
22332;SDS011;11334;36.986;-121.936;2023-05-03T04:41:47;8.38;;;2.35;;
22332;SDS011;11334;36.986;-121.936;2023-05-03T04:44:13;4.90;;;2.05;;
22332;SDS011;11334;36.986;-121.936;2023-05-03T04:46:39;4.47;;;1.92;;
22332;SDS011;11334;36.986;-121.936;2023-05-03T04:49:06;9.25;;;2.10;;
22332;SDS011;11334;36.986;-121.936;2023-05-03T04:51:32;7.80;;;1.95;;
22332;SDS011;11334;36.986;-121.936;2023-05-03T04:53:58;7.72;;;1.73;;
22332;SDS011;11334;36.986;-121.936;2023-05-03T04:56:25;9.70;;;2.13;;
22332;SDS011;11334;36.986;-121.936;2023-05-03T04:58:51;7.35;;;2.17;;
22332;SDS011;11334;36.986;-121.936;2023-05-03T05:01:18;6.90;;;1.80;;
22332;SDS011;11334;36.986;-121.936;2023-05-03T05:03:51;9.23;;;2.10;;
22332;SDS011;11334;36.986;-121.936;2023-05-03T05:06:17;6.70;;;1.67;;
22332;SDS011;11334;36.986;-121.936;2023-05-03T05:08:44;4.43;;;1.23;;
22332;SDS011;11334;36.986;-121.936;2023-05-03T05:11:11;7.00;;;1.65;;
22332;SDS011;11334;36.986;-121.936;2023-05-03T05:13:38;8.00;;;1.77;;
22332;SDS011;11334;36.986;-121.936;2023-05-03T05:16:05;5.35;;;1.60;;
22332;SDS011;11334;36.986;-121.936;2023-05-03T05:18:31;4.35;;;1.60;;
22332;SDS011;11334;36.986;-121.936;2023-05-03T05:20:57;5.20;;;1.42;;
22332;SDS011;11334;36.986;-121.936;2023-05-03T05:23:23;5.80;;;2.00;;
22332;SDS011;11334;36.986;-121.936;2023-05-03T05:25:50;4.43;;;1.50;;
22332;SDS011;11334;36.986;-121.936;2023-05-03T05:28:18;3.05;;;1.50;;
22332;SDS011;11334;36.986;-121.936;2023-05-03T05:30:44;2.63;;;1.30;;
22332;SDS011;11334;36.986;-121.936;2023-05-03T05:33:10;3.95;;;1.17;;
22332;SDS011;11334;36.986;-121.936;2023-05-03T05:35:36;3.63;;;1.40;;
22332;SDS011;11334;36.986;-121.936;2023-05-03T05:38:03;3.08;;;1.27;;
22332;SDS011;11334;36.986;-121.936;2023-05-03T05:40:29;2.83;;;1.27;;
22332;SDS011;11334;36.986;-121.936;2023-05-03T05:42:55;3.53;;;1.42;;
22332;SDS011;11334;36.986;-121.936;2023-05-03T05:45:21;3.20;;;1.35;;
22332;SDS011;11334;36.986;-121.936;2023-05-03T05:47:47;2.78;;;1.10;;
22332;SDS011;11334;36.986;-121.936;2023-05-03T05:50:13;4.80;;;1.50;;
22332;SDS011;11334;36.986;-121.936;2023-05-03T05:52:40;4.47;;;1.42;;
22332;SDS011;11334;36.986;-121.936;2023-05-03T05:55:06;2.80;;;1.80;;
22332;SDS011;11334;36.986;-121.936;2023-05-03T05:57:33;5.03;;;1.95;;
22332;SDS011;11334;36.986;-121.936;2023-05-03T06:00:00;3.30;;;1.33;;
22332;SDS011;11334;36.986;-121.936;2023-05-03T06:02:26;4.13;;;1.60;;
22332;SDS011;11334;36.986;-121.936;2023-05-03T06:04:52;3.78;;;1.30;;
22332;SDS011;11334;36.986;-121.936;2023-05-03T06:07:18;4.43;;;1.40;;
22332;SDS011;11334;36.986;-121.936;2023-05-03T06:09:45;2.88;;;1.50;;
22332;SDS011;11334;36.986;-121.936;2023-05-03T06:12:11;3.60;;;1.23;;
22332;SDS011;11334;36.986;-121.936;2023-05-03T06:14:37;2.58;;;1.10;;
22332;SDS011;11334;36.986;-121.936;2023-05-03T06:17:03;5.93;;;1.15;;
22332;SDS011;11334;36.986;-121.936;2023-05-03T06:19:30;4.65;;;1.05;;
22332;SDS011;11334;36.986;-121.936;2023-05-03T06:21:56;1.85;;;0.93;;
22332;SDS011;11334;36.986;-121.936;2023-05-03T06:24:22;3.08;;;0.80;;
22332;SDS011;11334;36.986;-121.936;2023-05-03T06:26:48;5.07;;;1.08;;
22332;SDS011;11334;36.986;-121.936;2023-05-03T06:29:14;2.65;;;0.73;;
22332;SDS011;11334;36.986;-121.936;2023-05-03T06:31:40;3.97;;;0.80;;
22332;SDS011;11334;36.986;-121.936;2023-05-03T06:34:07;2.85;;;1.05;;
22332;SDS011;11334;36.986;-121.936;2023-05-03T06:36:34;3.90;;;1.25;;
22332;SDS011;11334;36.986;-121.936;2023-05-03T06:39:00;1.40;;;1.10;;
22332;SDS011;11334;36.986;-121.936;2023-05-03T06:41:29;2.40;;;0.80;;
22332;SDS011;11334;36.986;-121.936;2023-05-03T06:43:57;1.65;;;0.95;;
22332;SDS011;11334;36.986;-121.936;2023-05-03T06:46:23;1.88;;;1.00;;
22332;SDS011;11334;36.986;-121.936;2023-05-03T06:48:50;2.67;;;1.15;;
22332;SDS011;11334;36.986;-121.936;2023-05-03T06:51:21;1.13;;;1.02;;
22332;SDS011;11334;36.986;-121.936;2023-05-03T06:53:52;3.35;;;1.20;;
22332;SDS011;11334;36.986;-121.936;2023-05-03T06:56:20;2.72;;;1.08;;
22332;SDS011;11334;36.986;-121.936;2023-05-03T06:58:47;2.08;;;0.82;;
22332;SDS011;11334;36.986;-121.936;2023-05-03T07:01:13;1.05;;;0.95;;
22332;SDS011;11334;36.986;-121.936;2023-05-03T07:03:40;2.08;;;0.93;;
22332;SDS011;11334;36.986;-121.936;2023-05-03T07:06:06;1.70;;;0.82;;
22332;SDS011;11334;36.986;-121.936;2023-05-03T07:08:32;4.28;;;0.98;;
22332;SDS011;11334;36.986;-121.936;2023-05-03T07:10:58;2.63;;;0.77;;
22332;SDS011;11334;36.986;-121.936;2023-05-03T07:13:24;2.53;;;1.30;;
22332;SDS011;11334;36.986;-121.936;2023-05-03T07:15:51;5.00;;;1.33;;
22332;SDS011;11334;36.986;-121.936;2023-05-03T07:18:17;4.05;;;1.20;;
22332;SDS011;11334;36.986;-121.936;2023-05-03T07:20:43;2.47;;;1.00;;
22332;SDS011;11334;36.986;-121.936;2023-05-03T07:23:10;3.40;;;1.50;;
22332;SDS011;11334;36.986;-121.936;2023-05-03T07:25:36;2.65;;;0.88;;
22332;SDS011;11334;36.986;-121.936;2023-05-03T07:28:06;1.15;;;0.80;;
22332;SDS011;11334;36.986;-121.936;2023-05-03T07:30:32;2.10;;;1.10;;
22332;SDS011;11334;36.986;-121.936;2023-05-03T07:32:58;3.70;;;1.00;;
22332;SDS011;11334;36.986;-121.936;2023-05-03T07:35:25;1.58;;;1.00;;
22332;SDS011;11334;36.986;-121.936;2023-05-03T07:37:51;3.45;;;1.02;;
22332;SDS011;11334;36.986;-121.936;2023-05-03T07:40:17;1.98;;;1.02;;
22332;SDS011;11334;36.986;-121.936;2023-05-03T07:42:44;5.68;;;1.10;;
22332;SDS011;11334;36.986;-121.936;2023-05-03T07:45:10;5.57;;;0.98;;
22332;SDS011;11334;36.986;-121.936;2023-05-03T07:47:37;1.42;;;0.88;;
22332;SDS011;11334;36.986;-121.936;2023-05-03T07:50:04;2.30;;;1.13;;
22332;SDS011;11334;36.986;-121.936;2023-05-03T07:52:37;7.10;;;1.17;;
22332;SDS011;11334;36.986;-121.936;2023-05-03T07:55:06;1.48;;;0.90;;
22332;SDS011;11334;36.986;-121.936;2023-05-03T07:57:33;3.42;;;1.17;;
22332;SDS011;11334;36.986;-121.936;2023-05-03T08:00:00;1.08;;;0.90;;
22332;SDS011;11334;36.986;-121.936;2023-05-03T08:02:28;4.80;;;1.23;;
22332;SDS011;11334;36.986;-121.936;2023-05-03T08:04:54;4.10;;;1.30;;
22332;SDS011;11334;36.986;-121.936;2023-05-03T08:07:21;4.22;;;1.38;;
22332;SDS011;11334;36.986;-121.936;2023-05-03T08:09:47;5.55;;;1.27;;
22332;SDS011;11334;36.986;-121.936;2023-05-03T08:12:13;2.33;;;0.85;;
22332;SDS011;11334;36.986;-121.936;2023-05-03T08:14:40;4.13;;;1.27;;
22332;SDS011;11334;36.986;-121.936;2023-05-03T08:17:06;3.63;;;1.05;;
22332;SDS011;11334;36.986;-121.936;2023-05-03T08:19:33;3.63;;;1.27;;
22332;SDS011;11334;36.986;-121.936;2023-05-03T08:22:00;2.80;;;0.65;;
22332;SDS011;11334;36.986;-121.936;2023-05-03T08:24:27;3.50;;;1.00;;
22332;SDS011;11334;36.986;-121.936;2023-05-03T08:26:53;2.13;;;0.80;;
22332;SDS011;11334;36.986;-121.936;2023-05-03T08:29:20;4.60;;;1.00;;
22332;SDS011;11334;36.986;-121.936;2023-05-03T08:31:46;2.08;;;0.98;;
22332;SDS011;11334;36.986;-121.936;2023-05-03T08:34:12;2.85;;;1.05;;
22332;SDS011;11334;36.986;-121.936;2023-05-03T08:36:38;2.38;;;0.95;;
22332;SDS011;11334;36.986;-121.936;2023-05-03T08:39:04;6.95;;;0.90;;
22332;SDS011;11334;36.986;-121.936;2023-05-03T08:41:31;3.53;;;1.20;;
22332;SDS011;11334;36.986;-121.936;2023-05-03T08:43:58;2.38;;;0.70;;
22332;SDS011;11334;36.986;-121.936;2023-05-03T08:46:26;4.60;;;1.02;;
22332;SDS011;11334;36.986;-121.936;2023-05-03T08:48:53;4.68;;;0.80;;
22332;SDS011;11334;36.986;-121.936;2023-05-03T08:51:21;4.15;;;1.27;;
22332;SDS011;11334;36.986;-121.936;2023-05-03T08:53:48;3.05;;;0.85;;
22332;SDS011;11334;36.986;-121.936;2023-05-03T08:56:16;4.82;;;1.33;;
22332;SDS011;11334;36.986;-121.936;2023-05-03T08:58:54;3.72;;;1.17;;
22332;SDS011;11334;36.986;-121.936;2023-05-03T09:01:21;2.40;;;1.02;;
22332;SDS011;11334;36.986;-121.936;2023-05-03T09:03:48;5.22;;;1.15;;
22332;SDS011;11334;36.986;-121.936;2023-05-03T09:06:19;4.78;;;1.02;;
22332;SDS011;11334;36.986;-121.936;2023-05-03T09:08:50;2.88;;;0.75;;
22332;SDS011;11334;36.986;-121.936;2023-05-03T09:11:20;2.33;;;1.05;;
22332;SDS011;11334;36.986;-121.936;2023-05-03T09:13:50;2.60;;;1.33;;
22332;SDS011;11334;36.986;-121.936;2023-05-03T09:16:23;7.38;;;1.60;;
22332;SDS011;11334;36.986;-121.936;2023-05-03T09:18:57;5.80;;;1.35;;
22332;SDS011;11334;36.986;-121.936;2023-05-03T09:21:37;3.35;;;1.00;;
22332;SDS011;11334;36.986;-121.936;2023-05-03T09:24:14;2.30;;;1.00;;
22332;SDS011;11334;36.986;-121.936;2023-05-03T09:26:43;3.10;;;1.10;;
22332;SDS011;11334;36.986;-121.936;2023-05-03T09:29:25;5.95;;;1.13;;
22332;SDS011;11334;36.986;-121.936;2023-05-03T09:31:59;2.92;;;1.08;;
22332;SDS011;11334;36.986;-121.936;2023-05-03T09:34:28;3.22;;;0.80;;
22332;SDS011;11334;36.986;-121.936;2023-05-03T09:36:56;6.22;;;1.13;;
22332;SDS011;11334;36.986;-121.936;2023-05-03T09:39:22;3.53;;;1.02;;
22332;SDS011;11334;36.986;-121.936;2023-05-03T09:41:48;4.00;;;1.42;;
22332;SDS011;11334;36.986;-121.936;2023-05-03T09:44:18;6.60;;;1.48;;
22332;SDS011;11334;36.986;-121.936;2023-05-03T09:47:01;3.00;;;0.85;;
22332;SDS011;11334;36.986;-121.936;2023-05-03T09:49:30;4.72;;;1.73;;
22332;SDS011;11334;36.986;-121.936;2023-05-03T09:51:58;8.48;;;2.58;;
22332;SDS011;11334;36.986;-121.936;2023-05-03T09:54:25;5.13;;;1.65;;
22332;SDS011;11334;36.986;-121.936;2023-05-03T09:56:53;5.25;;;1.55;;
22332;SDS011;11334;36.986;-121.936;2023-05-03T09:59:23;6.15;;;1.80;;
22332;SDS011;11334;36.986;-121.936;2023-05-03T10:01:49;8.18;;;2.10;;
22332;SDS011;11334;36.986;-121.936;2023-05-03T10:04:20;6.97;;;1.88;;
22332;SDS011;11334;36.986;-121.936;2023-05-03T10:06:51;6.63;;;1.60;;
22332;SDS011;11334;36.986;-121.936;2023-05-03T10:11:54;6.78;;;1.45;;
22332;SDS011;11334;36.986;-121.936;2023-05-03T10:14:24;3.33;;;0.90;;
22332;SDS011;11334;36.986;-121.936;2023-05-03T10:16:51;3.42;;;0.77;;
22332;SDS011;11334;36.986;-121.936;2023-05-03T10:19:34;2.95;;;1.00;;
22332;SDS011;11334;36.986;-121.936;2023-05-03T10:22:12;4.18;;;0.95;;
22332;SDS011;11334;36.986;-121.936;2023-05-03T10:30:25;2.25;;;0.95;;
22332;SDS011;11334;36.986;-121.936;2023-05-03T10:35:41;6.72;;;1.23;;
22332;SDS011;11334;36.986;-121.936;2023-05-03T10:38:15;5.10;;;1.20;;
22332;SDS011;11334;36.986;-121.936;2023-05-03T10:40:45;2.60;;;0.73;;
22332;SDS011;11334;36.986;-121.936;2023-05-03T10:46:07;4.95;;;1.45;;
22332;SDS011;11334;36.986;-121.936;2023-05-03T10:51:42;3.50;;;0.80;;
22332;SDS011;11334;36.986;-121.936;2023-05-03T10:54:09;3.03;;;1.10;;
22332;SDS011;11334;36.986;-121.936;2023-05-03T10:56:53;6.00;;;0.82;;
22332;SDS011;11334;36.986;-121.936;2023-05-03T10:59:21;3.92;;;1.17;;
22332;SDS011;11334;36.986;-121.936;2023-05-03T11:01:49;0.70;;;0.57;;
22332;SDS011;11334;36.986;-121.936;2023-05-03T11:06:50;3.15;;;0.85;;
22332;SDS011;11334;36.986;-121.936;2023-05-03T11:09:28;1.75;;;0.75;;
22332;SDS011;11334;36.986;-121.936;2023-05-03T11:12:02;6.15;;;0.88;;
22332;SDS011;11334;36.986;-121.936;2023-05-03T11:14:29;2.17;;;0.80;;
22332;SDS011;11334;36.986;-121.936;2023-05-03T11:16:55;2.92;;;1.00;;
22332;SDS011;11334;36.986;-121.936;2023-05-03T11:19:22;4.28;;;1.02;;
22332;SDS011;11334;36.986;-121.936;2023-05-03T11:21:49;3.00;;;1.10;;
22332;SDS011;11334;36.986;-121.936;2023-05-03T11:24:16;3.65;;;0.98;;
22332;SDS011;11334;36.986;-121.936;2023-05-03T11:26:42;4.47;;;1.13;;
22332;SDS011;11334;36.986;-121.936;2023-05-03T11:29:08;9.32;;;1.00;;
22332;SDS011;11334;36.986;-121.936;2023-05-03T11:31:36;5.65;;;1.38;;
22332;SDS011;11334;36.986;-121.936;2023-05-03T11:34:02;1.38;;;0.50;;
22332;SDS011;11334;36.986;-121.936;2023-05-03T11:36:29;2.38;;;0.88;;
22332;SDS011;11334;36.986;-121.936;2023-05-03T11:38:55;3.67;;;1.00;;
22332;SDS011;11334;36.986;-121.936;2023-05-03T11:41:22;4.68;;;0.85;;
22332;SDS011;11334;36.986;-121.936;2023-05-03T11:43:48;4.03;;;0.95;;
22332;SDS011;11334;36.986;-121.936;2023-05-03T11:46:21;2.53;;;1.00;;
22332;SDS011;11334;36.986;-121.936;2023-05-03T11:48:50;1.45;;;0.75;;
22332;SDS011;11334;36.986;-121.936;2023-05-03T11:51:23;2.72;;;0.68;;
22332;SDS011;11334;36.986;-121.936;2023-05-03T11:53:51;1.80;;;0.70;;
22332;SDS011;11334;36.986;-121.936;2023-05-03T11:56:17;2.15;;;1.15;;
22332;SDS011;11334;36.986;-121.936;2023-05-03T11:58:52;2.90;;;0.95;;
22332;SDS011;11334;36.986;-121.936;2023-05-03T12:01:22;4.65;;;0.98;;
22332;SDS011;11334;36.986;-121.936;2023-05-03T12:03:53;1.52;;;0.70;;
22332;SDS011;11334;36.986;-121.936;2023-05-03T12:06:25;3.40;;;1.08;;
22332;SDS011;11334;36.986;-121.936;2023-05-03T12:08:53;4.28;;;0.88;;
22332;SDS011;11334;36.986;-121.936;2023-05-03T12:11:19;2.55;;;0.70;;
22332;SDS011;11334;36.986;-121.936;2023-05-03T12:13:54;6.10;;;0.93;;
22332;SDS011;11334;36.986;-121.936;2023-05-03T12:16:24;4.32;;;1.15;;
22332;SDS011;11334;36.986;-121.936;2023-05-03T12:18:52;3.50;;;0.75;;
22332;SDS011;11334;36.986;-121.936;2023-05-03T12:21:47;3.45;;;1.10;;
22332;SDS011;11334;36.986;-121.936;2023-05-03T12:24:13;3.03;;;1.05;;
22332;SDS011;11334;36.986;-121.936;2023-05-03T12:26:44;1.80;;;0.70;;
22332;SDS011;11334;36.986;-121.936;2023-05-03T12:29:11;6.43;;;1.00;;
22332;SDS011;11334;36.986;-121.936;2023-05-03T12:31:37;2.33;;;1.00;;
22332;SDS011;11334;36.986;-121.936;2023-05-03T12:34:04;4.18;;;1.10;;
22332;SDS011;11334;36.986;-121.936;2023-05-03T12:36:31;2.38;;;0.80;;
22332;SDS011;11334;36.986;-121.936;2023-05-03T12:39:00;5.97;;;1.00;;
22332;SDS011;11334;36.986;-121.936;2023-05-03T12:41:27;3.20;;;0.93;;
22332;SDS011;11334;36.986;-121.936;2023-05-03T12:43:59;4.10;;;1.10;;
22332;SDS011;11334;36.986;-121.936;2023-05-03T12:46:28;2.22;;;0.80;;
22332;SDS011;11334;36.986;-121.936;2023-05-03T12:48:54;3.42;;;0.93;;
22332;SDS011;11334;36.986;-121.936;2023-05-03T12:51:20;1.73;;;1.13;;
22332;SDS011;11334;36.986;-121.936;2023-05-03T12:53:47;4.28;;;1.23;;
22332;SDS011;11334;36.986;-121.936;2023-05-03T12:56:14;3.60;;;1.30;;
22332;SDS011;11334;36.986;-121.936;2023-05-03T12:58:40;3.17;;;1.25;;
22332;SDS011;11334;36.986;-121.936;2023-05-03T13:01:06;5.40;;;1.42;;
22332;SDS011;11334;36.986;-121.936;2023-05-03T13:03:33;7.65;;;2.30;;
22332;SDS011;11334;36.986;-121.936;2023-05-03T13:05:59;2.88;;;1.35;;
22332;SDS011;11334;36.986;-121.936;2023-05-03T13:08:29;6.28;;;1.50;;
22332;SDS011;11334;36.986;-121.936;2023-05-03T13:10:55;5.38;;;1.30;;
22332;SDS011;11334;36.986;-121.936;2023-05-03T13:13:21;5.35;;;1.48;;
22332;SDS011;11334;36.986;-121.936;2023-05-03T13:15:49;3.78;;;1.23;;
22332;SDS011;11334;36.986;-121.936;2023-05-03T13:18:18;2.08;;;0.93;;
22332;SDS011;11334;36.986;-121.936;2023-05-03T13:20:44;4.78;;;0.90;;
22332;SDS011;11334;36.986;-121.936;2023-05-03T13:23:11;2.83;;;1.08;;
22332;SDS011;11334;36.986;-121.936;2023-05-03T13:25:38;3.05;;;0.98;;
22332;SDS011;11334;36.986;-121.936;2023-05-03T13:28:04;2.78;;;0.98;;
22332;SDS011;11334;36.986;-121.936;2023-05-03T13:30:31;3.10;;;0.90;;
22332;SDS011;11334;36.986;-121.936;2023-05-03T13:32:57;3.85;;;1.02;;
22332;SDS011;11334;36.986;-121.936;2023-05-03T13:35:23;2.83;;;0.80;;
22332;SDS011;11334;36.986;-121.936;2023-05-03T13:37:51;2.38;;;0.95;;
22332;SDS011;11334;36.986;-121.936;2023-05-03T13:40:17;2.13;;;0.77;;
22332;SDS011;11334;36.986;-121.936;2023-05-03T13:42:43;2.03;;;0.75;;
22332;SDS011;11334;36.986;-121.936;2023-05-03T13:45:10;2.35;;;0.90;;
22332;SDS011;11334;36.986;-121.936;2023-05-03T13:47:37;5.88;;;1.10;;
22332;SDS011;11334;36.986;-121.936;2023-05-03T13:50:04;3.08;;;1.10;;
22332;SDS011;11334;36.986;-121.936;2023-05-03T13:52:31;3.35;;;0.90;;
22332;SDS011;11334;36.986;-121.936;2023-05-03T13:54:57;3.05;;;0.80;;
22332;SDS011;11334;36.986;-121.936;2023-05-03T13:57:25;2.78;;;1.08;;
22332;SDS011;11334;36.986;-121.936;2023-05-03T13:59:51;2.90;;;0.82;;
22332;SDS011;11334;36.986;-121.936;2023-05-03T14:02:17;2.85;;;0.70;;
22332;SDS011;11334;36.986;-121.936;2023-05-03T14:04:44;2.78;;;1.00;;
22332;SDS011;11334;36.986;-121.936;2023-05-03T14:07:10;1.40;;;0.93;;
22332;SDS011;11334;36.986;-121.936;2023-05-03T14:09:36;2.08;;;0.98;;
22332;SDS011;11334;36.986;-121.936;2023-05-03T14:12:04;1.42;;;0.90;;
22332;SDS011;11334;36.986;-121.936;2023-05-03T14:14:33;4.45;;;0.93;;
22332;SDS011;11334;36.986;-121.936;2023-05-03T14:17:01;2.45;;;1.10;;
22332;SDS011;11334;36.986;-121.936;2023-05-03T14:19:27;4.95;;;1.10;;
22332;SDS011;11334;36.986;-121.936;2023-05-03T14:21:56;1.42;;;0.90;;
22332;SDS011;11334;36.986;-121.936;2023-05-03T14:24:24;1.45;;;0.90;;
22332;SDS011;11334;36.986;-121.936;2023-05-03T14:26:51;1.80;;;0.95;;
22332;SDS011;11334;36.986;-121.936;2023-05-03T14:29:17;3.45;;;0.88;;
22332;SDS011;11334;36.986;-121.936;2023-05-03T14:31:43;2.40;;;0.77;;
22332;SDS011;11334;36.986;-121.936;2023-05-03T14:34:10;0.82;;;0.65;;
22332;SDS011;11334;36.986;-121.936;2023-05-03T14:36:36;2.33;;;0.77;;